Time;durP1;ratioP1;P1;durP2;ratioP2;P2;SDS_P1;SDS_P2;PMS_P1;PMS_P2;Temp;Humidity;BMP_temperature;BMP_pressure;BME280_temperature;BME280_humidity;BME280_pressure;Samples;Min_cycle;Max_cycle;Signal;HPM_P1;HPM_P2
2022/11/22 00:02:15;;;;;;;;;;;;;;;;;;4913892;29;20390;-82
2022/11/22 00:05:02;;;;;;;;;;;;;;;;;;4912608;29;19923;-82
2022/11/22 00:07:49;;;;;;;;;;;;;;;;;;4903199;29;20394;-82
2022/11/22 00:10:35;;;;;;;;;;;;;;;;;;4896093;29;19918;-82
2022/11/22 00:13:21;;;;;;;;;;;;;;;;;;4915606;29;20394;-82
2022/11/22 00:16:08;;;;;;;;;;;;;;;;;;4908725;29;19947;-81
2022/11/22 00:18:54;;;;;;;;;;;;;;;;;;4899887;29;19918;-81
2022/11/22 00:21:41;;;;;;;;;;;;;;;;;;4925399;29;19918;-81
2022/11/22 00:24:27;;;;;;;;;;;;;;;;;;4904466;29;19922;-81
2022/11/22 00:27:14;;;;;;;;;;;;;;;;;;4903983;29;19911;-81
2022/11/22 00:30:00;;;;;;;;;;;;;;;;;;4913981;29;20278;-82
2022/11/22 00:32:47;;;;;;;;;;;;;;;;;;4904469;29;19920;-82
2022/11/22 00:35:33;;;;;;;;;;;;;;;;;;4907687;29;19927;-81
2022/11/22 00:38:20;;;;;;;;;;;;;;;;;;4910241;29;19922;-82
2022/11/22 00:41:06;;;;;;;;;;;;;;;;;;4907847;29;20380;-82
2022/11/22 00:43:53;;;;;;;;;;;;;;;;;;4909604;29;19922;-82
2022/11/22 00:46:39;;;;;;;;;;;;;;;;;;4909660;29;19912;-82
2022/11/22 00:49:26;;;;;;;;;;;;;;;;;;4912689;29;19919;-82
2022/11/22 00:52:12;;;;;;;;;;;;;;;;;;4908974;29;19922;-83
2022/11/22 00:54:58;;;;;;;;;;;;;;;;;;4898403;29;19923;-83
2022/11/22 00:57:45;;;;;;;;;;;;;;;;;;4906170;29;20379;-84
2022/11/22 01:00:31;;;;;;;;;;;;;;;;;;4903574;29;19911;-83
2022/11/22 01:03:18;;;;;;;;;;;;;;;;;;4908416;29;19923;-83
2022/11/22 01:06:04;;;;;;;;;;;;;;;;;;4894933;29;20291;-82
2022/11/22 01:08:51;;;;;;;;;;;;;;;;;;4902476;29;19911;-83
2022/11/22 01:11:37;;;;;;;;;;;;;;;;;;4897693;29;19915;-83
2022/11/22 01:14:24;;;;;;;;;;;;;;;;;;4898655;29;20551;-83
2022/11/22 01:17:10;;;;;;;;;;;;;;;;;;4897807;29;19918;-82
2022/11/22 01:19:57;;;;;;;;;;;;;;;;;;4907437;29;19912;-82
2022/11/22 01:22:43;;;;;;;;;;;;;;;;;;4904986;29;20292;-82
2022/11/22 01:25:30;;;;;;;;;;;;;;;;;;4905657;29;19911;-80
2022/11/22 01:28:16;;;;;;;;;;;;;;;;;;4905675;29;19915;-81
2022/11/22 01:31:03;;;;;;;;;;;;;;;;;;4899572;29;19915;-82
2022/11/22 01:33:50;;;;;;;;;;;;;;;;;;4913686;29;19919;-82
2022/11/22 01:36:36;;;;;;;;;;;;;;;;;;4905006;29;19915;-82
2022/11/22 01:39:23;;;;;;;;;;;;;;;;;;4905776;29;19930;-82
2022/11/22 01:42:09;;;;;;;;;;;;;;;;;;4898387;29;20314;-82
2022/11/22 01:44:56;;;;;;;;;;;;;;;;;;4902535;29;19911;-81
2022/11/22 01:47:42;;;;;;;;;;;;;;;;;;4911223;29;20268;-81
2022/11/22 01:50:29;;;;;;;;;;;;;;;;;;4911884;29;20005;-81
2022/11/22 01:53:15;;;;;;;;;;;;;;;;;;4912134;29;19915;-81
2022/11/22 01:56:02;;;;;;;;;;;;;;;;;;4912077;29;19935;-82
2022/11/22 01:58:48;;;;;;;;;;;;;;;;;;4906652;29;19911;-82
2022/11/22 02:01:35;;;;;;;;;;;;;;;;;;4911473;29;19911;-82
2022/11/22 02:04:21;;;;;;;;;;;;;;;;;;4907884;29;19923;-82
2022/11/22 02:07:07;;;;;;;;;;;;;;;;;;4903629;29;19927;-82
2022/11/22 02:09:54;;;;;;;;;;;;;;;;;;4896703;29;20276;-82
2022/11/22 02:12:40;;;;;;;;;;;;;;;;;;4911409;29;19911;-82
2022/11/22 02:15:27;;;;;;;;;;;;;;;;;;4906920;29;19954;-81
2022/11/22 02:18:13;;;;;;;;;;;;;;;;;;4909016;29;20129;-82
2022/11/22 02:21:00;;;;;;;;;;;;;;;;;;4912934;29;19911;-82
2022/11/22 02:23:46;;;;;;;;;;;;;;;;;;4904249;29;19915;-82
2022/11/22 02:26:33;;;;;;;;;;;;;;;;;;4910793;29;20329;-83
2022/11/22 02:29:19;;;;;;;;;;;;;;;;;;4911359;29;19962;-83
2022/11/22 02:32:06;;;;;;;;;;;;;;;;;;4903996;29;19927;-83
2022/11/22 02:34:52;;;;;;;;;;;;;;;;;;4896968;29;20302;-83
2022/11/22 02:37:39;;;;;;;;;;;;;;;;;;4907933;29;19916;-83
2022/11/22 02:40:25;;;;;;;;;;;;;;;;;;4906076;29;20466;-83
2022/11/22 02:43:12;;;;;;;;;;;;;;;;;;4895484;29;19911;-82
2022/11/22 02:45:58;;;;;;;;;;;;;;;;;;4913367;29;19918;-83
2022/11/22 02:48:44;;;;;;;;;;;;;;;;;;4909505;29;19919;-83
2022/11/22 02:51:31;;;;;;;;;;;;;;;;;;4896089;29;19918;-83
2022/11/22 02:54:17;;;;;;;;;;;;;;;;;;4895538;29;19919;-82
2022/11/22 02:57:04;;;;;;;;;;;;;;;;;;4895004;29;19912;-82
2022/11/22 02:59:50;;;;;;;;;;;;;;;;;;4911201;29;19915;-81
2022/11/22 03:02:37;;;;;;;;;;;;;;;;;;4902203;29;20525;-82
2022/11/22 03:05:23;;;;;;;;;;;;;;;;;;4906862;29;19924;-82
2022/11/22 03:08:10;;;;;;;;;;;;;;;;;;4906809;29;19912;-83
2022/11/22 03:10:57;;;;;;;;;;;;;;;;;;4901642;29;19918;-84
2022/11/22 03:13:43;;;;;;;;;;;;;;;;;;4899093;29;19926;-83
2022/11/22 03:16:30;;;;;;;;;;;;;;;;;;4905038;29;20376;-83
2022/11/22 03:19:17;;;;;;;;;;;;;;;;;;4899666;29;19922;-83
2022/11/22 03:22:03;;;;;;;;;;;;;;;;;;4916705;29;19915;-86
2022/11/22 03:24:50;;;;;;;;;;;;;;;;;;4909040;29;19916;-86
2022/11/22 03:27:36;;;;;;;;;;;;;;;;;;4904996;29;20338;-85
2022/11/22 03:30:22;;;;;;;;;;;;;;;;;;4897273;29;19915;-84
2022/11/22 03:33:09;;;;;;;;;;;;;;;;;;4908712;29;19920;-84
2022/11/22 03:35:55;;;;;;;;;;;;;;;;;;4912521;29;19911;-83
2022/11/22 03:38:42;;;;;;;;;;;;;;;;;;4915010;29;19957;-82
2022/11/22 03:41:28;;;;;;;;;;;;;;;;;;4899307;29;20360;-81
2022/11/22 03:44:15;;;;;;;;;;;;;;;;;;4912328;29;19927;-81
2022/11/22 03:47:01;;;;;;;;;;;;;;;;;;4902488;29;19915;-82
2022/11/22 03:49:48;;;;;;;;;;;;;;;;;;4909771;29;19916;-82
2022/11/22 03:52:34;;;;;;;;;;;;;;;;;;4902447;29;19919;-82
2022/11/22 03:55:21;;;;;;;;;;;;;;;;;;4910055;29;19999;-82
2022/11/22 03:58:07;;;;;;;;;;;;;;;;;;4903174;29;19927;-83
2022/11/22 04:00:54;;;;;;;;;;;;;;;;;;4899553;29;19919;-83
2022/11/22 04:03:40;;;;;;;;;;;;;;;;;;4899779;29;19912;-82
2022/11/22 04:06:27;;;;;;;;;;;;;;;;;;4915331;29;19949;-82
2022/11/22 04:09:13;;;;;;;;;;;;;;;;;;4904106;29;19925;-82
2022/11/22 04:11:59;;;;;;;;;;;;;;;;;;4901201;29;19912;-82
2022/11/22 04:17:51;;;;;;;;;;;;;;;;;;4901587;29;20387;-82
2022/11/22 04:23:43;;;;;;;;;;;;;;;;;;4907515;29;19934;-83
2022/11/22 04:26:29;;;;;;;;;;;;;;;;;;4914917;29;19911;-83
2022/11/22 04:29:16;;;;;;;;;;;;;;;;;;4904768;29;19918;-83
2022/11/22 04:35:08;;;;;;;;;;;;;;;;;;4909396;29;19931;-81
2022/11/22 04:37:54;;;;;;;;;;;;;;;;;;4905165;29;20413;-81
2022/11/22 04:40:41;;;;;;;;;;;;;;;;;;4900539;29;19937;-81
2022/11/22 04:46:32;;;;;;;;;;;;;;;;;;4903834;29;19921;-82
2022/11/22 04:49:19;;;;;;;;;;;;;;;;;;4900028;29;19919;-83
2022/11/22 04:55:10;;;;;;;;;;;;;;;;;;4902697;29;19929;-82
2022/11/22 04:57:57;;;;;;;;;;;;;;;;;;4910021;29;19921;-84
2022/11/22 05:00:43;;;;;;;;;;;;;;;;;;4900892;29;19926;-84
2022/11/22 05:03:30;;;;;;;;;;;;;;;;;;4921001;29;20386;-83
2022/11/22 05:06:16;;;;;;;;;;;;;;;;;;4898091;29;19923;-83
2022/11/22 05:09:03;;;;;;;;;;;;;;;;;;4905689;29;19915;-83
2022/11/22 05:11:49;;;;;;;;;;;;;;;;;;4904653;29;19912;-83
2022/11/22 05:14:36;;;;;;;;;;;;;;;;;;4908639;29;19927;-85
2022/11/22 05:17:22;;;;;;;;;;;;;;;;;;4899215;29;19916;-83
2022/11/22 05:20:09;;;;;;;;;;;;;;;;;;4905902;29;20287;-83
2022/11/22 05:26:01;;;;;;;;;;;;;;;;;;4898789;29;20340;-84
2022/11/22 05:28:47;;;;;;;;;;;;;;;;;;4909539;29;19919;-87
2022/11/22 05:31:34;;;;;;;;;;;;;;;;;;4907253;29;19916;-86
2022/11/22 05:34:20;;;;;;;;;;;;;;;;;;4905160;29;20402;-87
2022/11/22 05:37:07;;;;;;;;;;;;;;;;;;4907077;29;20656;-86
2022/11/22 05:39:53;;;;;;;;;;;;;;;;;;4907706;29;20426;-85
2022/11/22 05:42:40;;;;;;;;;;;;;;;;;;4900486;29;19916;-85
2022/11/22 05:45:26;;;;;;;;;;;;;;;;;;4909154;29;19911;-84
2022/11/22 05:48:13;;;;;;;;;;;;;;;;;;4907517;29;19929;-84
2022/11/22 05:50:59;;;;;;;;;;;;;;;;;;4901722;29;19911;-84
2022/11/22 05:53:46;;;;;;;;;;;;;;;;;;4908411;29;20296;-83
2022/11/22 05:56:32;;;;;;;;;;;;;;;;;;4905753;29;19922;-85
2022/11/22 05:59:19;;;;;;;;;;;;;;;;;;4904172;29;20304;-85
2022/11/22 06:02:05;;;;;;;;;;;;;;;;;;4911332;29;19915;-86
2022/11/22 06:04:52;;;;;;;;;;;;;;;;;;4911615;29;19923;-86
2022/11/22 06:07:38;;;;;;;;;;;;;;;;;;4905553;29;20394;-85
2022/11/22 06:10:25;;;;;;;;;;;;;;;;;;4903423;29;20388;-86
2022/11/22 06:13:11;;;;;;;;;;;;;;;;;;4898254;29;19915;-84
2022/11/22 06:15:58;;;;;;;;;;;;;;;;;;4911755;29;19919;-86
2022/11/22 06:18:44;;;;;;;;;;;;;;;;;;4900834;29;19922;-85
2022/11/22 06:21:31;;;;;;;;;;;;;;;;;;4908357;29;19911;-84
2022/11/22 06:24:17;;;;;;;;;;;;;;;;;;4899141;29;20346;-84
2022/11/22 06:27:04;;;;;;;;;;;;;;;;;;4909981;29;19915;-84
2022/11/22 06:29:50;;;;;;;;;;;;;;;;;;4900036;29;19918;-84
2022/11/22 06:32:37;;;;;;;;;;;;;;;;;;4919453;29;19911;-85
2022/11/22 06:35:23;;;;;;;;;;;;;;;;;;4909387;29;19927;-85
2022/11/22 06:38:09;;;;;;;;;;;;;;;;;;4901115;29;19911;-85
2022/11/22 06:40:56;;;;;;;;;;;;;;;;;;4902568;29;19917;-85
2022/11/22 06:43:42;;;;;;;;;;;;;;;;;;4904987;29;20021;-84
2022/11/22 06:46:29;;;;;;;;;;;;;;;;;;4906613;29;20269;-84
2022/11/22 06:49:15;;;;;;;;;;;;;;;;;;4898548;29;19923;-84
2022/11/22 06:52:02;;;;;;;;;;;;;;;;;;4904485;29;19911;-83
2022/11/22 06:54:48;;;;;;;;;;;;;;;;;;4912921;29;20402;-83
2022/11/22 06:57:35;;;;;;;;;;;;;;;;;;4904196;29;19923;-83
2022/11/22 07:00:21;;;;;;;;;;;;;;;;;;4908093;29;19911;-83
2022/11/22 07:03:08;;;;;;;;;;;;;;;;;;4902512;29;19923;-83
2022/11/22 07:05:54;;;;;;;;;;;;;;;;;;4910479;29;20403;-84
2022/11/22 07:08:41;;;;;;;;;;;;;;;;;;4895113;29;20423;-84
2022/11/22 07:11:27;;;;;;;;;;;;;;;;;;4896311;29;19915;-85
2022/11/22 07:14:14;;;;;;;;;;;;;;;;;;4903991;29;19923;-85
2022/11/22 07:17:00;;;;;;;;;;;;;;;;;;4904274;29;19915;-84
2022/11/22 07:19:47;;;;;;;;;;;;;;;;;;4916235;29;19927;-84
2022/11/22 07:22:33;;;;;;;;;;;;;;;;;;4902060;29;19940;-83
2022/11/22 07:25:20;;;;;;;;;;;;;;;;;;4905544;29;20430;-85
2022/11/22 07:28:06;;;;;;;;;;;;;;;;;;4902347;29;20318;-84
2022/11/22 07:30:53;;;;;;;;;;;;;;;;;;4920651;29;19919;-85
2022/11/22 07:33:39;;;;;;;;;;;;;;;;;;4904484;29;19931;-83
2022/11/22 07:36:28;;;;;;;;;;;;;;;;;;4912795;29;19915;-86
2022/11/22 07:39:14;;;;;;;;;;;;;;;;;;4897880;29;19918;-85
2022/11/22 07:42:07;;;;;;;;;;;;;;;;;;4902079;29;19917;-84
2022/11/22 07:44:54;;;;;;;;;;;;;;;;;;4903134;29;19915;-84
2022/11/22 07:47:40;;;;;;;;;;;;;;;;;;4900230;29;19919;-84
2022/11/22 07:50:27;;;;;;;;;;;;;;;;;;4909852;29;19915;-85
2022/11/22 07:53:13;;;;;;;;;;;;;;;;;;4902184;29;19911;-81
2022/11/22 07:56:00;;;;;;;;;;;;;;;;;;4909071;29;19926;-80
2022/11/22 07:58:46;;;;;;;;;;;;;;;;;;4907396;29;19916;-80
2022/11/22 08:01:33;;;;;;;;;;;;;;;;;;4907314;29;20417;-79
2022/11/22 08:04:19;;;;;;;;;;;;;;;;;;4902329;29;19919;-79
2022/11/22 08:07:06;;;;;;;;;;;;;;;;;;4894624;29;20016;-79
2022/11/22 08:09:52;;;;;;;;;;;;;;;;;;4898438;29;20366;-79
2022/11/22 08:12:38;;;;;;;;;;;;;;;;;;4893682;29;19911;-78
2022/11/22 08:15:25;;;;;;;;;;;;;;;;;;4899313;29;19943;-79
2022/11/22 08:18:12;;;;;;;;;;;;;;;;;;4897247;29;20383;-79
2022/11/22 08:21:01;;;;;;;;;;;;;;;;;;4895448;29;19950;-79
2022/11/22 08:23:50;;;;;;;;;;;;;;;;;;4911639;29;19946;-79
2022/11/22 08:26:37;;;;;;;;;;;;;;;;;;4892842;29;19915;-79
2022/11/22 08:29:33;;;;;;;;;;;;;;;;;;;;;
2022/11/22 08:32:20;;;;;;;;;;;;;;;;;;4905772;29;20288;-79
2022/11/22 08:35:07;;;;;;;;;;;;;;;;;;4901086;29;19925;-79
2022/11/22 08:37:53;;;;;;;;;;;;;;;;;;4890860;29;19916;-79
2022/11/22 08:40:40;;;;;;;;;;;;;;;;;;4893944;29;19918;-79
2022/11/22 08:43:26;;;;;;;;;;;;;;;;;;4898336;29;19915;-79
2022/11/22 08:46:12;;;;;;;;;;;;;;;;;;4913248;29;19919;-79
2022/11/22 08:48:59;;;;;;;;;;;;;;;;;;4909674;29;20284;-78
2022/11/22 08:51:46;;;;;;;;;;;;;;;;;;4894711;29;19921;-79
2022/11/22 08:54:32;;;;;;;;;;;;;;;;;;4892664;29;19923;-79
2022/11/22 08:57:19;;;;;;;;;;;;;;;;;;4898915;29;19946;-79
2022/11/22 09:00:05;;;;;;;;;;;;;;;;;;4897241;29;19945;-79
2022/11/22 09:02:51;;;;;;;;;;;;;;;;;;4891058;29;20209;-78
2022/11/22 09:05:38;;;;;;;;;;;;;;;;;;4913783;29;19938;-79
2022/11/22 09:08:24;;;;;;;;;;;;;;;;;;4909745;29;19933;-79
2022/11/22 09:11:11;;;;;;;;;;;;;;;;;;4915136;29;19915;-79
2022/11/22 09:13:59;;;;;;;;;;;;;;;;;;4906546;29;19926;-78
2022/11/22 09:16:46;;;;;;;;;;;;;;;;;;4908022;29;20387;-79
2022/11/22 09:19:32;;;;;;;;;;;;;;;;;;4899622;29;19920;-79
2022/11/22 09:22:19;;;;;;;;;;;;;;;;;;4897842;29;20016;-79
2022/11/22 09:25:05;;;;;;;;;;;;;;;;;;4902861;29;19911;-79
2022/11/22 09:27:52;;;;;;;;;;;;;;;;;;4902585;29;19927;-78
2022/11/22 09:30:39;;;;;;;;;;;;;;;;;;4905650;29;19915;-79
2022/11/22 09:33:25;;;;;;;;;;;;;;;;;;4894579;29;19923;-79
2022/11/22 09:36:12;;;;;;;;;;;;;;;;;;4886867;29;19931;-78
2022/11/22 09:38:58;;;;;;;;;;;;;;;;;;4909525;29;19923;-78
2022/11/22 09:41:45;;;;;;;;;;;;;;;;;;4901705;29;19927;-79
2022/11/22 09:44:31;;;;;;;;;;;;;;;;;;4894285;29;19912;-79
2022/11/22 09:47:18;;;;;;;;;;;;;;;;;;4908073;29;19919;-79
2022/11/22 09:50:04;;;;;;;;;;;;;;;;;;4914811;29;19911;-79
2022/11/22 09:52:51;;;;;;;;;;;;;;;;;;4908071;29;19917;-79
2022/11/22 09:55:37;;;;;;;;;;;;;;;;;;4892550;29;19919;-79
2022/11/22 09:58:24;;;;;;;;;;;;;;;;;;4890192;29;19918;-79
2022/11/22 10:01:10;;;;;;;;;;;;;;;;;;4904287;29;19915;-79
2022/11/22 10:03:57;;;;;;;;;;;;;;;;;;4898688;29;19912;-79
2022/11/22 10:06:43;;;;;;;;;;;;;;;;;;4904450;29;19926;-79
2022/11/22 10:09:29;;;;;;;;;;;;;;;;;;4890532;29;19911;-78
2022/11/22 10:12:16;;;;;;;;;;;;;;;;;;4896834;29;19918;-79
2022/11/22 10:15:03;;;;;;;;;;;;;;;;;;4888231;29;19967;-79
2022/11/22 10:17:50;;;;;;;;;;;;;;;;;;4900493;29;19921;-79
2022/11/22 10:20:36;;;;;;;;;;;;;;;;;;4911264;29;19916;-79
2022/11/22 10:23:23;;;;;;;;;;;;;;;;;;4903959;29;19922;-79
2022/11/22 10:26:09;;;;;;;;;;;;;;;;;;4891085;29;19922;-79
2022/11/22 10:28:56;;;;;;;;;;;;;;;;;;4900086;29;19934;-79
2022/11/22 10:31:42;;;;;;;;;;;;;;;;;;4898247;29;19915;-79
2022/11/22 10:34:29;;;;;;;;;;;;;;;;;;4913601;29;19923;-79
2022/11/22 10:37:16;;;;;;;;;;;;;;;;;;4911484;29;19921;-79
2022/11/22 10:40:03;;;;;;;;;;;;;;;;;;4898793;29;19915;-79
2022/11/22 10:42:49;;;;;;;;;;;;;;;;;;4891877;29;19918;-79
2022/11/22 10:45:36;;;;;;;;;;;;;;;;;;4909776;29;20283;-80
2022/11/22 10:48:22;;;;;;;;;;;;;;;;;;4913281;29;19911;-79
2022/11/22 10:51:09;;;;;;;;;;;;;;;;;;4900491;29;19919;-79
2022/11/22 10:53:55;;;;;;;;;;;;;;;;;;4893985;29;19911;-79
2022/11/22 10:56:45;;;;;;;;;;;;;;;;;;4889429;29;19926;-79
2022/11/22 10:59:32;;;;;;;;;;;;;;;;;;4905443;29;19946;-79
2022/11/22 11:02:22;;;;;;;;;;;;;;;;;;4897473;29;19922;-79
2022/11/22 11:05:08;;;;;;;;;;;;;;;;;;4899895;29;20417;-79
2022/11/22 11:07:57;;;;;;;;;;;;;;;;;;4897364;29;19915;-79
2022/11/22 11:10:44;;;;;;;;;;;;;;;;;;4913550;29;19938;-79
2022/11/22 11:13:30;;;;;;;;;;;;;;;;;;4885955;29;20014;-78
2022/11/22 11:16:21;;;;;;;;;;;;;;;;;;4890814;29;20207;-79
2022/11/22 11:19:07;;;;;;;;;;;;;;;;;;4889061;29;19918;-79
2022/11/22 11:21:54;;;;;;;;;;;;;;;;;;4889032;29;20410;-79
2022/11/22 11:24:40;;;;;;;;;;;;;;;;;;4893107;29;19922;-79
2022/11/22 11:27:27;;;;;;;;;;;;;;;;;;4901539;29;19915;-79
2022/11/22 11:30:13;;;;;;;;;;;;;;;;;;4904877;29;19912;-79
2022/11/22 11:33:00;;;;;;;;;;;;;;;;;;4891636;29;20409;-79
2022/11/22 11:35:47;;;;;;;;;;;;;;;;;;4907069;29;19923;-79
2022/11/22 11:38:33;;;;;;;;;;;;;;;;;;4900454;29;19915;-79
2022/11/22 11:41:20;;;;;;;;;;;;;;;;;;4900317;29;19922;-79
2022/11/22 11:44:06;;;;;;;;;;;;;;;;;;4909533;29;19915;-79
2022/11/22 11:46:53;;;;;;;;;;;;;;;;;;4898572;29;19926;-79
2022/11/22 11:49:40;;;;;;;;;;;;;;;;;;4912169;29;19923;-79
2022/11/22 11:52:28;;;;;;;;;;;;;;;;;;4897456;29;19915;-79
2022/11/22 11:55:15;;;;;;;;;;;;;;;;;;4902578;29;19930;-79
2022/11/22 11:58:01;;;;;;;;;;;;;;;;;;4903681;29;19911;-79
2022/11/22 12:00:48;;;;;;;;;;;;;;;;;;4905082;29;19926;-79
2022/11/22 12:03:34;;;;;;;;;;;;;;;;;;4912510;29;19918;-79
2022/11/22 12:06:21;;;;;;;;;;;;;;;;;;4904545;29;19927;-79
2022/11/22 12:09:07;;;;;;;;;;;;;;;;;;4889308;29;19915;-79
2022/11/22 12:11:54;;;;;;;;;;;;;;;;;;4903837;29;19920;-79
2022/11/22 12:14:40;;;;;;;;;;;;;;;;;;4889888;29;20041;-79
2022/11/22 12:17:27;;;;;;;;;;;;;;;;;;4907048;29;19933;-79
2022/11/22 12:20:17;;;;;;;;;;;;;;;;;;4894939;29;19919;-78
2022/11/22 12:23:03;;;;;;;;;;;;;;;;;;4896626;29;19920;-79
2022/11/22 12:25:50;;;;;;;;;;;;;;;;;;4906897;29;19919;-79
2022/11/22 12:28:43;;;;;;;;;;;;;;;;;;4912560;29;20304;-79
2022/11/22 12:31:29;;;;;;;;;;;;;;;;;;4895315;29;20371;-79
2022/11/22 12:34:16;;;;;;;;;;;;;;;;;;4892058;29;20022;-79
2022/11/22 12:37:05;;;;;;;;;;;;;;;;;;4906120;29;19919;-79
2022/11/22 12:39:51;;;;;;;;;;;;;;;;;;4891356;29;19911;-79
2022/11/22 12:42:38;;;;;;;;;;;;;;;;;;4894759;29;19927;-79
2022/11/22 12:45:24;;;;;;;;;;;;;;;;;;4908381;29;20481;-79
2022/11/22 12:48:11;;;;;;;;;;;;;;;;;;4895844;29;19950;-79
2022/11/22 12:50:57;;;;;;;;;;;;;;;;;;4891742;29;20595;-78
2022/11/22 12:53:44;;;;;;;;;;;;;;;;;;4889609;29;19916;-78
2022/11/22 12:56:30;;;;;;;;;;;;;;;;;;4889434;29;19919;-78
2022/11/22 12:59:17;;;;;;;;;;;;;;;;;;4891013;29;19919;-79
2022/11/22 13:02:03;;;;;;;;;;;;;;;;;;4910187;29;20402;-79
2022/11/22 13:04:51;;;;;;;;;;;;;;;;;;4908430;29;19928;-79
2022/11/22 13:07:37;;;;;;;;;;;;;;;;;;4891601;29;20304;-79
2022/11/22 13:10:24;;;;;;;;;;;;;;;;;;4901750;29;19911;-79
2022/11/22 13:13:10;;;;;;;;;;;;;;;;;;4894818;29;19922;-79
2022/11/22 13:15:57;;;;;;;;;;;;;;;;;;4898107;29;19942;-78
2022/11/22 13:18:43;;;;;;;;;;;;;;;;;;4890718;29;19926;-79
2022/11/22 13:21:30;;;;;;;;;;;;;;;;;;4911463;29;19922;-79
2022/11/22 13:24:16;;;;;;;;;;;;;;;;;;4907067;29;19915;-79
2022/11/22 13:27:03;;;;;;;;;;;;;;;;;;4901712;29;19923;-80
2022/11/22 13:29:49;;;;;;;;;;;;;;;;;;4901519;29;20383;-78
2022/11/22 13:32:36;;;;;;;;;;;;;;;;;;4910515;29;20295;-78
2022/11/22 13:35:22;;;;;;;;;;;;;;;;;;4910217;29;19923;-78
2022/11/22 13:38:09;;;;;;;;;;;;;;;;;;4898428;29;19922;-78
2022/11/22 13:40:55;;;;;;;;;;;;;;;;;;4901821;29;19941;-78
2022/11/22 13:43:42;;;;;;;;;;;;;;;;;;4895987;29;19915;-78
2022/11/22 13:46:28;;;;;;;;;;;;;;;;;;4900978;29;19922;-78
2022/11/22 13:49:14;;;;;;;;;;;;;;;;;;4908813;29;19915;-78
2022/11/22 13:52:03;;;;;;;;;;;;;;;;;;4905736;29;19915;-77
2022/11/22 13:54:55;;;;;;;;;;;;;;;;;;4888528;29;19919;-77
2022/11/22 13:57:41;;;;;;;;;;;;;;;;;;4909213;29;19919;-77
2022/11/22 14:00:28;;;;;;;;;;;;;;;;;;4885429;29;19926;-80
2022/11/22 14:03:14;;;;;;;;;;;;;;;;;;4892339;29;20484;-79
2022/11/22 14:06:01;;;;;;;;;;;;;;;;;;4905689;29;20399;-79
2022/11/22 14:08:48;;;;;;;;;;;;;;;;;;4904204;29;19915;-79
2022/11/22 14:11:34;;;;;;;;;;;;;;;;;;4913251;29;20288;-79
2022/11/22 14:14:20;;;;;;;;;;;;;;;;;;4906302;29;19927;-77
2022/11/22 14:17:07;;;;;;;;;;;;;;;;;;4895923;29;20292;-79
2022/11/22 14:19:53;;;;;;;;;;;;;;;;;;4911427;29;19919;-79
2022/11/22 14:22:40;;;;;;;;;;;;;;;;;;4905785;29;19923;-79
2022/11/22 14:25:26;;;;;;;;;;;;;;;;;;4907380;29;19918;-79
2022/11/22 14:28:13;;;;;;;;;;;;;;;;;;4917362;29;19926;-79
2022/11/22 14:30:59;;;;;;;;;;;;;;;;;;4910947;29;20433;-79
2022/11/22 14:33:46;;;;;;;;;;;;;;;;;;4905918;29;19919;-79
2022/11/22 14:36:32;;;;;;;;;;;;;;;;;;4899021;29;20288;-79
2022/11/22 14:39:19;;;;;;;;;;;;;;;;;;4909378;29;19915;-79
2022/11/22 14:42:05;;;;;;;;;;;;;;;;;;4900718;29;19942;-79
2022/11/22 14:44:52;;;;;;;;;;;;;;;;;;4910042;29;19915;-79
2022/11/22 14:47:38;;;;;;;;;;;;;;;;;;4896710;29;19919;-79
2022/11/22 14:50:25;;;;;;;;;;;;;;;;;;4897760;29;19918;-79
2022/11/22 14:53:11;;;;;;;;;;;;;;;;;;4903293;29;20340;-79
2022/11/22 14:55:57;;;;;;;;;;;;;;;;;;4901763;29;19927;-79
2022/11/22 14:58:44;;;;;;;;;;;;;;;;;;4903908;29;19911;-79
2022/11/22 15:01:30;;;;;;;;;;;;;;;;;;4902489;29;19919;-79
2022/11/22 15:04:17;;;;;;;;;;;;;;;;;;4908506;29;19930;-77
2022/11/22 15:07:03;;;;;;;;;;;;;;;;;;4896120;29;19925;-79
2022/11/22 15:09:50;;;;;;;;;;;;;;;;;;4893201;29;20319;-91
2022/11/22 15:12:37;;;;;;;;;;;;;;;;;;4900611;29;20398;-89
2022/11/22 15:15:24;;;;;;;;;;;;;;;;;;4907290;29;19923;-88
2022/11/22 15:18:10;;;;;;;;;;;;;;;;;;4899340;29;19911;-86
2022/11/22 15:20:57;;;;;;;;;;;;;;;;;;4899356;29;19922;-92
2022/11/22 15:23:43;;;;;;;;;;;;;;;;;;4892020;29;19916;-92
2022/11/22 15:26:30;;;;;;;;;;;;;;;;;;4895139;29;19919;-90
2022/11/22 15:29:16;;;;;;;;;;;;;;;;;;4894882;29;19915;-87
2022/11/22 15:32:03;;;;;;;;;;;;;;;;;;4899085;29;20430;-90
2022/11/22 15:34:49;;;;;;;;;;;;;;;;;;4892179;29;19923;-91
2022/11/22 15:37:36;;;;;;;;;;;;;;;;;;4894506;29;19922;-89
2022/11/22 15:40:22;;;;;;;;;;;;;;;;;;4897549;29;19921;-92
2022/11/22 15:43:09;;;;;;;;;;;;;;;;;;4898656;29;19952;-93
2022/11/22 15:45:55;;;;;;;;;;;;;;;;;;4894006;29;20245;-91
2022/11/22 15:48:42;;;;;;;;;;;;;;;;;;4895349;29;20334;-91
2022/11/22 15:51:29;;;;;;;;;;;;;;;;;;4894674;29;19920;-92
2022/11/22 15:54:18;;;;;;;;;;;;;;;;;;4890240;29;19918;-92
2022/11/22 15:57:05;;;;;;;;;;;;;;;;;;4897187;29;19926;-91
2022/11/22 15:59:52;;;;;;;;;;;;;;;;;;4895733;29;20344;-92
2022/11/22 16:02:39;;;;;;;;;;;;;;;;;;4898149;29;19915;-93
2022/11/22 16:05:25;;;;;;;;;;;;;;;;;;4906501;29;19946;-93
2022/11/22 16:08:12;;;;;;;;;;;;;;;;;;4903996;29;19911;-93
2022/11/22 16:10:58;;;;;;;;;;;;;;;;;;4907765;29;19920;-93
2022/11/22 16:13:44;;;;;;;;;;;;;;;;;;4903836;29;19922;-94
2022/11/22 16:16:31;;;;;;;;;;;;;;;;;;4904166;29;19923;-94
2022/11/22 16:19:17;;;;;;;;;;;;;;;;;;4910179;29;19942;-91
2022/11/22 16:22:04;;;;;;;;;;;;;;;;;;4905123;29;20559;-93
2022/11/22 16:24:50;;;;;;;;;;;;;;;;;;4906270;29;19915;-92
2022/11/22 16:27:37;;;;;;;;;;;;;;;;;;4901925;29;19915;-91
2022/11/22 16:30:23;;;;;;;;;;;;;;;;;;4913925;29;19923;-92
2022/11/22 16:33:10;;;;;;;;;;;;;;;;;;4913518;29;20489;-91
2022/11/22 16:35:56;;;;;;;;;;;;;;;;;;4916391;29;19920;-93
2022/11/22 16:38:43;;;;;;;;;;;;;;;;;;4905271;29;19919;-87
2022/11/22 16:41:29;;;;;;;;;;;;;;;;;;4904281;29;19919;-86
2022/11/22 16:44:16;;;;;;;;;;;;;;;;;;4907524;29;19919;-86
2022/11/22 16:47:02;;;;;;;;;;;;;;;;;;4900245;29;19925;-86
2022/11/22 16:49:49;;;;;;;;;;;;;;;;;;4903732;29;19937;-85
2022/11/22 16:52:36;;;;;;;;;;;;;;;;;;4899216;29;19938;-85
2022/11/22 16:55:22;;;;;;;;;;;;;;;;;;4907310;29;19951;-84
2022/11/22 16:58:09;;;;;;;;;;;;;;;;;;4905489;29;19922;-84
2022/11/22 17:00:55;;;;;;;;;;;;;;;;;;4907555;29;19920;-84
2022/11/22 17:03:42;;;;;;;;;;;;;;;;;;4900009;29;19911;-84
2022/11/22 17:06:28;;;;;;;;;;;;;;;;;;4897972;29;19950;-84
2022/11/22 17:09:15;;;;;;;;;;;;;;;;;;4885963;29;20635;-85
2022/11/22 17:12:01;;;;;;;;;;;;;;;;;;4901159;29;19922;-85
2022/11/22 17:14:49;;;;;;;;;;;;;;;;;;4891666;29;19926;-85
2022/11/22 17:17:36;;;;;;;;;;;;;;;;;;4910105;29;19919;-85
2022/11/22 17:20:23;;;;;;;;;;;;;;;;;;4904339;29;19930;-84
2022/11/22 17:23:09;;;;;;;;;;;;;;;;;;4890350;29;19916;-85
2022/11/22 17:25:56;;;;;;;;;;;;;;;;;;4897926;29;19919;-85
2022/11/22 17:28:42;;;;;;;;;;;;;;;;;;4896330;29;20390;-87
2022/11/22 17:31:29;;;;;;;;;;;;;;;;;;4891984;29;19919;-88
2022/11/22 17:34:15;;;;;;;;;;;;;;;;;;4894947;29;19920;-87
2022/11/22 17:37:02;;;;;;;;;;;;;;;;;;4895821;29;19926;-87
2022/11/22 17:39:48;;;;;;;;;;;;;;;;;;4889572;29;19915;-88
2022/11/22 17:42:35;;;;;;;;;;;;;;;;;;4888126;29;19919;-88
2022/11/22 17:45:21;;;;;;;;;;;;;;;;;;4896293;29;19922;-87
2022/11/22 17:48:08;;;;;;;;;;;;;;;;;;4905248;29;20473;-88
2022/11/22 17:50:54;;;;;;;;;;;;;;;;;;4889214;29;19923;-89
2022/11/22 17:53:41;;;;;;;;;;;;;;;;;;4888941;29;19946;-89
2022/11/22 17:56:29;;;;;;;;;;;;;;;;;;4890285;29;19923;-88
2022/11/22 17:59:15;;;;;;;;;;;;;;;;;;4894288;29;19923;-88
2022/11/22 18:02:02;;;;;;;;;;;;;;;;;;4901408;29;20332;-88
2022/11/22 18:04:48;;;;;;;;;;;;;;;;;;4901009;29;19927;-89
2022/11/22 18:07:37;;;;;;;;;;;;;;;;;;4915852;29;19921;-88
2022/11/22 18:10:23;;;;;;;;;;;;;;;;;;4915287;29;19941;-89
2022/11/22 18:13:10;;;;;;;;;;;;;;;;;;4913171;29;19922;-89
2022/11/22 18:15:56;;;;;;;;;;;;;;;;;;4902266;29;19924;-88
2022/11/22 18:18:43;;;;;;;;;;;;;;;;;;4905760;29;20563;-88
2022/11/22 18:21:29;;;;;;;;;;;;;;;;;;4912174;29;19917;-89
2022/11/22 18:24:16;;;;;;;;;;;;;;;;;;4917212;29;19911;-89
2022/11/22 18:27:02;;;;;;;;;;;;;;;;;;4911573;29;19923;-89
2022/11/22 18:29:49;;;;;;;;;;;;;;;;;;4903946;29;19915;-88
2022/11/22 18:32:36;;;;;;;;;;;;;;;;;;4900230;29;19915;-88
2022/11/22 18:35:22;;;;;;;;;;;;;;;;;;4921282;29;19923;-88
2022/11/22 18:38:09;;;;;;;;;;;;;;;;;;4903987;29;19925;-89
2022/11/22 18:40:56;;;;;;;;;;;;;;;;;;4899451;29;19912;-89
2022/11/22 18:43:42;;;;;;;;;;;;;;;;;;4897537;29;20284;-88
2022/11/22 18:46:29;;;;;;;;;;;;;;;;;;4908252;29;19916;-88
2022/11/22 18:49:15;;;;;;;;;;;;;;;;;;4900563;29;20375;-88
2022/11/22 18:52:02;;;;;;;;;;;;;;;;;;4909176;29;19929;-88
2022/11/22 18:54:48;;;;;;;;;;;;;;;;;;4905625;29;19915;-88
2022/11/22 18:57:35;;;;;;;;;;;;;;;;;;4901681;29;20521;-87
2022/11/22 19:00:21;;;;;;;;;;;;;;;;;;4904211;29;19923;-89
2022/11/22 19:03:08;;;;;;;;;;;;;;;;;;4907435;29;20289;-89
2022/11/22 19:05:54;;;;;;;;;;;;;;;;;;4905706;29;19923;-85
2022/11/22 19:08:41;;;;;;;;;;;;;;;;;;4900371;29;19924;-88
2022/11/22 19:11:27;;;;;;;;;;;;;;;;;;4904265;29;19919;-88
2022/11/22 19:14:14;;;;;;;;;;;;;;;;;;4901649;29;20272;-85
2022/11/22 19:17:00;;;;;;;;;;;;;;;;;;4902587;29;19923;-84